sensor_id;sensor_type;location;lat;lon;timestamp;P1;durP1;ratioP1;P2;durP2;ratioP2
10191;SDS011;17580;50.850;4.504;2023-06-24T00:00:35;3.53;;;3.23;;
10191;SDS011;17580;50.850;4.504;2023-06-24T00:03:03;4.37;;;3.60;;
10191;SDS011;17580;50.850;4.504;2023-06-24T00:05:32;3.17;;;2.93;;
10191;SDS011;17580;50.850;4.504;2023-06-24T00:07:59;3.93;;;3.30;;
10191;SDS011;17580;50.850;4.504;2023-06-24T00:10:29;3.27;;;3.07;;
10191;SDS011;17580;50.850;4.504;2023-06-24T00:12:56;3.83;;;3.53;;
10191;SDS011;17580;50.850;4.504;2023-06-24T00:15:26;3.70;;;3.17;;
10191;SDS011;17580;50.850;4.504;2023-06-24T00:17:53;3.47;;;3.27;;
10191;SDS011;17580;50.850;4.504;2023-06-24T00:20:31;3.50;;;3.30;;
10191;SDS011;17580;50.850;4.504;2023-06-24T00:22:58;3.60;;;3.30;;
10191;SDS011;17580;50.850;4.504;2023-06-24T00:25:25;3.77;;;3.37;;
10191;SDS011;17580;50.850;4.504;2023-06-24T00:27:54;3.47;;;3.27;;
10191;SDS011;17580;50.850;4.504;2023-06-24T00:30:22;3.10;;;2.90;;
10191;SDS011;17580;50.850;4.504;2023-06-24T00:32:49;3.10;;;2.73;;
10191;SDS011;17580;50.850;4.504;2023-06-24T00:35:17;3.67;;;3.27;;
10191;SDS011;17580;50.850;4.504;2023-06-24T00:37:44;3.30;;;3.00;;
10191;SDS011;17580;50.850;4.504;2023-06-24T00:40:11;3.27;;;2.97;;
10191;SDS011;17580;50.850;4.504;2023-06-24T00:42:40;3.53;;;3.10;;
10191;SDS011;17580;50.850;4.504;2023-06-24T00:45:09;3.60;;;3.30;;
10191;SDS011;17580;50.850;4.504;2023-06-24T00:47:37;3.40;;;3.10;;
10191;SDS011;17580;50.850;4.504;2023-06-24T00:50:06;3.90;;;3.60;;
10191;SDS011;17580;50.850;4.504;2023-06-24T00:52:33;2.90;;;2.70;;
10191;SDS011;17580;50.850;4.504;2023-06-24T00:55:02;3.57;;;3.30;;
10191;SDS011;17580;50.850;4.504;2023-06-24T00:57:29;3.30;;;3.10;;
10191;SDS011;17580;50.850;4.504;2023-06-24T00:59:56;2.80;;;2.67;;
10191;SDS011;17580;50.850;4.504;2023-06-24T01:02:26;4.27;;;3.10;;
10191;SDS011;17580;50.850;4.504;2023-06-24T01:04:54;2.53;;;2.33;;
10191;SDS011;17580;50.850;4.504;2023-06-24T01:07:22;2.90;;;2.70;;
10191;SDS011;17580;50.850;4.504;2023-06-24T01:09:49;3.07;;;2.87;;
10191;SDS011;17580;50.850;4.504;2023-06-24T01:12:16;3.47;;;3.03;;
10191;SDS011;17580;50.850;4.504;2023-06-24T01:14:43;2.43;;;2.33;;
10191;SDS011;17580;50.850;4.504;2023-06-24T01:17:12;3.30;;;2.90;;
10191;SDS011;17580;50.850;4.504;2023-06-24T01:25:30;2.60;;;2.40;;
10191;SDS011;17580;50.850;4.504;2023-06-24T01:28:16;2.77;;;2.57;;
10191;SDS011;17580;50.850;4.504;2023-06-24T01:31:00;3.23;;;2.90;;
10191;SDS011;17580;50.850;4.504;2023-06-24T01:33:36;2.43;;;2.30;;
10191;SDS011;17580;50.850;4.504;2023-06-24T01:36:05;2.97;;;2.60;;
10191;SDS011;17580;50.850;4.504;2023-06-24T01:38:36;2.77;;;2.57;;
10191;SDS011;17580;50.850;4.504;2023-06-24T01:41:03;2.90;;;2.70;;
10191;SDS011;17580;50.850;4.504;2023-06-24T01:43:31;2.53;;;2.43;;
10191;SDS011;17580;50.850;4.504;2023-06-24T01:45:59;2.50;;;2.27;;
10191;SDS011;17580;50.850;4.504;2023-06-24T01:48:27;2.40;;;2.30;;
10191;SDS011;17580;50.850;4.504;2023-06-24T01:50:59;3.03;;;2.60;;
10191;SDS011;17580;50.850;4.504;2023-06-24T01:53:27;3.10;;;2.90;;
10191;SDS011;17580;50.850;4.504;2023-06-24T01:55:54;3.37;;;2.77;;
10191;SDS011;17580;50.850;4.504;2023-06-24T01:58:24;2.93;;;2.70;;
10191;SDS011;17580;50.850;4.504;2023-06-24T02:00:51;2.90;;;2.70;;
10191;SDS011;17580;50.850;4.504;2023-06-24T02:03:19;4.40;;;3.17;;
10191;SDS011;17580;50.850;4.504;2023-06-24T02:05:46;2.73;;;2.60;;
10191;SDS011;17580;50.850;4.504;2023-06-24T02:08:16;4.00;;;3.47;;
10191;SDS011;17580;50.850;4.504;2023-06-24T02:10:43;2.67;;;2.57;;
10191;SDS011;17580;50.850;4.504;2023-06-24T02:13:12;2.83;;;2.63;;
10191;SDS011;17580;50.850;4.504;2023-06-24T02:15:40;3.40;;;3.10;;
10191;SDS011;17580;50.850;4.504;2023-06-24T02:18:08;4.50;;;3.43;;
10191;SDS011;17580;50.850;4.504;2023-06-24T02:20:35;2.87;;;2.67;;
10191;SDS011;17580;50.850;4.504;2023-06-24T02:23:04;5.73;;;2.97;;
10191;SDS011;17580;50.850;4.504;2023-06-24T02:25:35;3.00;;;2.80;;
10191;SDS011;17580;50.850;4.504;2023-06-24T02:28:05;3.00;;;2.80;;
10191;SDS011;17580;50.850;4.504;2023-06-24T02:30:32;3.00;;;2.80;;
10191;SDS011;17580;50.850;4.504;2023-06-24T02:33:01;3.17;;;2.93;;
10191;SDS011;17580;50.850;4.504;2023-06-24T02:35:28;3.07;;;2.80;;
10191;SDS011;17580;50.850;4.504;2023-06-24T02:37:55;3.43;;;3.20;;
10191;SDS011;17580;50.850;4.504;2023-06-24T02:40:23;3.03;;;2.83;;
10191;SDS011;17580;50.850;4.504;2023-06-24T02:42:52;2.60;;;2.50;;
10191;SDS011;17580;50.850;4.504;2023-06-24T02:45:19;2.60;;;2.50;;
10191;SDS011;17580;50.850;4.504;2023-06-24T02:47:46;2.60;;;2.50;;
10191;SDS011;17580;50.850;4.504;2023-06-24T02:50:14;3.20;;;3.00;;
10191;SDS011;17580;50.850;4.504;2023-06-24T02:52:41;2.83;;;2.63;;
10191;SDS011;17580;50.850;4.504;2023-06-24T02:55:09;2.90;;;2.70;;
10191;SDS011;17580;50.850;4.504;2023-06-24T02:57:37;2.93;;;2.73;;
10191;SDS011;17580;50.850;4.504;2023-06-24T03:00:07;3.00;;;2.80;;
10191;SDS011;17580;50.850;4.504;2023-06-24T03:02:37;5.23;;;2.93;;
10191;SDS011;17580;50.850;4.504;2023-06-24T03:05:05;3.20;;;3.00;;
10191;SDS011;17580;50.850;4.504;2023-06-24T03:07:33;2.57;;;2.47;;
10191;SDS011;17580;50.850;4.504;2023-06-24T03:10:03;3.30;;;3.00;;
10191;SDS011;17580;50.850;4.504;2023-06-24T03:12:31;4.67;;;2.93;;
10191;SDS011;17580;50.850;4.504;2023-06-24T03:14:58;2.50;;;2.30;;
10191;SDS011;17580;50.850;4.504;2023-06-24T03:17:27;5.03;;;2.97;;
10191;SDS011;17580;50.850;4.504;2023-06-24T03:19:54;3.93;;;2.87;;
10191;SDS011;17580;50.850;4.504;2023-06-24T03:22:22;3.07;;;2.77;;
10191;SDS011;17580;50.850;4.504;2023-06-24T03:24:49;3.03;;;2.80;;
10191;SDS011;17580;50.850;4.504;2023-06-24T03:27:18;5.80;;;3.10;;
10191;SDS011;17580;50.850;4.504;2023-06-24T03:29:45;3.57;;;2.93;;
10191;SDS011;17580;50.850;4.504;2023-06-24T03:32:12;2.87;;;2.70;;
10191;SDS011;17580;50.850;4.504;2023-06-24T03:34:41;2.90;;;2.70;;
10191;SDS011;17580;50.850;4.504;2023-06-24T03:37:08;2.63;;;2.43;;
10191;SDS011;17580;50.850;4.504;2023-06-24T03:39:35;2.90;;;2.70;;
10191;SDS011;17580;50.850;4.504;2023-06-24T03:42:03;4.40;;;2.20;;
10191;SDS011;17580;50.850;4.504;2023-06-24T03:44:30;3.00;;;2.80;;
10191;SDS011;17580;50.850;4.504;2023-06-24T03:46:57;2.80;;;2.60;;
10191;SDS011;17580;50.850;4.504;2023-06-24T03:49:24;2.80;;;2.60;;
10191;SDS011;17580;50.850;4.504;2023-06-24T03:51:53;3.03;;;2.80;;
10191;SDS011;17580;50.850;4.504;2023-06-24T03:54:20;2.60;;;2.50;;
10191;SDS011;17580;50.850;4.504;2023-06-24T03:56:47;2.73;;;2.63;;
10191;SDS011;17580;50.850;4.504;2023-06-24T03:59:15;2.60;;;2.43;;
10191;SDS011;17580;50.850;4.504;2023-06-24T04:01:42;6.20;;;2.90;;
10191;SDS011;17580;50.850;4.504;2023-06-24T04:04:09;5.90;;;2.47;;
10191;SDS011;17580;50.850;4.504;2023-06-24T04:06:36;3.00;;;2.83;;
10191;SDS011;17580;50.850;4.504;2023-06-24T04:09:05;3.03;;;2.83;;
10191;SDS011;17580;50.850;4.504;2023-06-24T04:11:34;3.13;;;2.90;;
10191;SDS011;17580;50.850;4.504;2023-06-24T04:14:02;3.03;;;2.83;;
10191;SDS011;17580;50.850;4.504;2023-06-24T04:16:31;3.10;;;2.90;;
10191;SDS011;17580;50.850;4.504;2023-06-24T04:18:59;5.37;;;2.73;;
10191;SDS011;17580;50.850;4.504;2023-06-24T04:21:26;2.83;;;2.50;;
10191;SDS011;17580;50.850;4.504;2023-06-24T04:23:53;2.93;;;2.70;;
10191;SDS011;17580;50.850;4.504;2023-06-24T04:26:22;3.00;;;2.80;;
10191;SDS011;17580;50.850;4.504;2023-06-24T04:28:49;2.73;;;2.53;;
10191;SDS011;17580;50.850;4.504;2023-06-24T04:31:16;2.50;;;2.40;;
10191;SDS011;17580;50.850;4.504;2023-06-24T04:33:44;3.93;;;2.90;;
10191;SDS011;17580;50.850;4.504;2023-06-24T04:36:11;2.90;;;2.70;;
10191;SDS011;17580;50.850;4.504;2023-06-24T04:38:38;3.10;;;2.90;;
10191;SDS011;17580;50.850;4.504;2023-06-24T04:41:05;2.40;;;2.30;;
10191;SDS011;17580;50.850;4.504;2023-06-24T04:43:34;3.20;;;2.83;;
10191;SDS011;17580;50.850;4.504;2023-06-24T04:46:01;2.57;;;2.47;;
10191;SDS011;17580;50.850;4.504;2023-06-24T04:48:28;4.23;;;2.63;;
10191;SDS011;17580;50.850;4.504;2023-06-24T04:50:56;3.77;;;2.83;;
10191;SDS011;17580;50.850;4.504;2023-06-24T04:53:23;2.63;;;2.43;;
10191;SDS011;17580;50.850;4.504;2023-06-24T04:55:50;2.93;;;2.73;;
10191;SDS011;17580;50.850;4.504;2023-06-24T04:58:17;2.70;;;2.50;;
10191;SDS011;17580;50.850;4.504;2023-06-24T05:00:46;2.27;;;2.17;;
10191;SDS011;17580;50.850;4.504;2023-06-24T05:03:13;2.47;;;2.27;;
10191;SDS011;17580;50.850;4.504;2023-06-24T05:05:40;2.30;;;2.20;;
10191;SDS011;17580;50.850;4.504;2023-06-24T05:08:08;4.23;;;2.40;;
10191;SDS011;17580;50.850;4.504;2023-06-24T05:10:35;2.50;;;2.40;;
10191;SDS011;17580;50.850;4.504;2023-06-24T05:13:02;2.77;;;2.57;;
10191;SDS011;17580;50.850;4.504;2023-06-24T05:15:29;3.47;;;3.17;;
10191;SDS011;17580;50.850;4.504;2023-06-24T05:17:58;2.90;;;2.70;;
10191;SDS011;17580;50.850;4.504;2023-06-24T05:20:25;3.13;;;2.70;;
10191;SDS011;17580;50.850;4.504;2023-06-24T05:22:52;2.67;;;2.47;;
10191;SDS011;17580;50.850;4.504;2023-06-24T05:25:20;2.00;;;1.90;;
10191;SDS011;17580;50.850;4.504;2023-06-24T05:27:47;2.60;;;2.40;;
10191;SDS011;17580;50.850;4.504;2023-06-24T05:30:14;3.17;;;2.97;;
10191;SDS011;17580;50.850;4.504;2023-06-24T05:32:42;2.70;;;2.60;;
10191;SDS011;17580;50.850;4.504;2023-06-24T05:35:10;2.17;;;2.07;;
10191;SDS011;17580;50.850;4.504;2023-06-24T05:37:37;2.77;;;2.57;;
10191;SDS011;17580;50.850;4.504;2023-06-24T05:40:05;2.27;;;2.17;;
10191;SDS011;17580;50.850;4.504;2023-06-24T05:42:34;2.70;;;2.50;;
10191;SDS011;17580;50.850;4.504;2023-06-24T05:45:01;2.60;;;2.40;;
10191;SDS011;17580;50.850;4.504;2023-06-24T05:47:29;3.20;;;2.57;;
10191;SDS011;17580;50.850;4.504;2023-06-24T05:49:56;2.37;;;2.17;;
10191;SDS011;17580;50.850;4.504;2023-06-24T05:52:24;2.77;;;2.10;;
10191;SDS011;17580;50.850;4.504;2023-06-24T05:54:54;2.23;;;2.13;;
10191;SDS011;17580;50.850;4.504;2023-06-24T05:57:21;4.17;;;2.10;;
10191;SDS011;17580;50.850;4.504;2023-06-24T05:59:48;2.93;;;2.73;;
10191;SDS011;17580;50.850;4.504;2023-06-24T06:02:15;2.90;;;2.37;;
10191;SDS011;17580;50.850;4.504;2023-06-24T06:04:42;2.57;;;2.43;;
10191;SDS011;17580;50.850;4.504;2023-06-24T06:07:10;2.30;;;1.97;;
10191;SDS011;17580;50.850;4.504;2023-06-24T06:09:38;3.70;;;2.10;;
10191;SDS011;17580;50.850;4.504;2023-06-24T06:12:06;2.30;;;2.20;;
10191;SDS011;17580;50.850;4.504;2023-06-24T06:14:33;3.03;;;2.57;;
10191;SDS011;17580;50.850;4.504;2023-06-24T06:17:00;2.57;;;2.37;;
10191;SDS011;17580;50.850;4.504;2023-06-24T06:19:28;2.40;;;2.30;;
10191;SDS011;17580;50.850;4.504;2023-06-24T06:21:55;2.70;;;2.50;;
10191;SDS011;17580;50.850;4.504;2023-06-24T06:24:22;2.00;;;1.90;;
10191;SDS011;17580;50.850;4.504;2023-06-24T06:26:51;2.37;;;2.17;;
10191;SDS011;17580;50.850;4.504;2023-06-24T06:29:18;3.10;;;2.40;;
10191;SDS011;17580;50.850;4.504;2023-06-24T06:31:45;2.63;;;2.10;;
10191;SDS011;17580;50.850;4.504;2023-06-24T06:34:12;2.43;;;2.27;;
10191;SDS011;17580;50.850;4.504;2023-06-24T06:36:39;2.20;;;2.10;;
10191;SDS011;17580;50.850;4.504;2023-06-24T06:39:07;2.20;;;2.10;;
10191;SDS011;17580;50.850;4.504;2023-06-24T06:41:34;2.93;;;2.17;;
10191;SDS011;17580;50.850;4.504;2023-06-24T06:44:03;2.10;;;2.00;;
10191;SDS011;17580;50.850;4.504;2023-06-24T06:46:30;2.27;;;2.17;;
10191;SDS011;17580;50.850;4.504;2023-06-24T06:48:57;2.10;;;1.97;;
10191;SDS011;17580;50.850;4.504;2023-06-24T06:51:25;2.30;;;2.20;;
10191;SDS011;17580;50.850;4.504;2023-06-24T06:53:52;2.47;;;2.27;;
10191;SDS011;17580;50.850;4.504;2023-06-24T06:56:22;2.97;;;1.80;;
10191;SDS011;17580;50.850;4.504;2023-06-24T06:58:50;2.17;;;1.97;;
10191;SDS011;17580;50.850;4.504;2023-06-24T07:01:19;2.23;;;2.13;;
10191;SDS011;17580;50.850;4.504;2023-06-24T07:03:46;2.17;;;2.03;;
10191;SDS011;17580;50.850;4.504;2023-06-24T07:06:14;2.27;;;2.10;;
10191;SDS011;17580;50.850;4.504;2023-06-24T07:08:41;2.10;;;2.00;;
10191;SDS011;17580;50.850;4.504;2023-06-24T07:11:08;2.33;;;2.23;;
10191;SDS011;17580;50.850;4.504;2023-06-24T07:13:35;2.23;;;2.13;;
10191;SDS011;17580;50.850;4.504;2023-06-24T07:16:02;5.57;;;2.07;;
10191;SDS011;17580;50.850;4.504;2023-06-24T07:18:31;3.03;;;2.50;;
10191;SDS011;17580;50.850;4.504;2023-06-24T07:20:59;2.63;;;1.93;;
10191;SDS011;17580;50.850;4.504;2023-06-24T07:23:26;2.00;;;1.90;;
10191;SDS011;17580;50.850;4.504;2023-06-24T07:25:54;2.27;;;2.13;;
10191;SDS011;17580;50.850;4.504;2023-06-24T07:28:21;2.83;;;2.50;;
10191;SDS011;17580;50.850;4.504;2023-06-24T07:30:48;2.30;;;2.20;;
10191;SDS011;17580;50.850;4.504;2023-06-24T07:33:15;3.07;;;2.23;;
10191;SDS011;17580;50.850;4.504;2023-06-24T07:35:44;2.77;;;2.20;;
10191;SDS011;17580;50.850;4.504;2023-06-24T07:38:11;2.17;;;2.07;;
10191;SDS011;17580;50.850;4.504;2023-06-24T07:40:38;1.77;;;1.77;;
10191;SDS011;17580;50.850;4.504;2023-06-24T07:43:05;2.10;;;1.90;;
10191;SDS011;17580;50.850;4.504;2023-06-24T07:45:33;2.37;;;2.27;;
10191;SDS011;17580;50.850;4.504;2023-06-24T07:48:00;2.20;;;2.10;;
10191;SDS011;17580;50.850;4.504;2023-06-24T07:50:27;2.40;;;2.20;;
10191;SDS011;17580;50.850;4.504;2023-06-24T07:52:57;2.30;;;2.10;;
10191;SDS011;17580;50.850;4.504;2023-06-24T07:55:24;2.00;;;1.90;;
10191;SDS011;17580;50.850;4.504;2023-06-24T07:57:51;2.00;;;1.90;;
10191;SDS011;17580;50.850;4.504;2023-06-24T08:00:18;1.80;;;1.80;;
10191;SDS011;17580;50.850;4.504;2023-06-24T08:02:46;1.77;;;1.63;;
10191;SDS011;17580;50.850;4.504;2023-06-24T08:05:13;2.00;;;1.90;;
10191;SDS011;17580;50.850;4.504;2023-06-24T08:07:43;2.00;;;1.90;;
10191;SDS011;17580;50.850;4.504;2023-06-24T08:10:12;2.10;;;2.00;;
10191;SDS011;17580;50.850;4.504;2023-06-24T08:12:39;2.33;;;1.90;;
10191;SDS011;17580;50.850;4.504;2023-06-24T08:15:07;2.20;;;2.10;;
10191;SDS011;17580;50.850;4.504;2023-06-24T08:17:34;2.10;;;2.00;;
10191;SDS011;17580;50.850;4.504;2023-06-24T08:20:01;2.30;;;2.20;;
10191;SDS011;17580;50.850;4.504;2023-06-24T08:22:29;2.33;;;2.23;;
10191;SDS011;17580;50.850;4.504;2023-06-24T08:24:56;2.70;;;2.43;;
10191;SDS011;17580;50.850;4.504;2023-06-24T08:27:25;2.10;;;1.90;;
10191;SDS011;17580;50.850;4.504;2023-06-24T08:29:52;2.33;;;2.20;;
10191;SDS011;17580;50.850;4.504;2023-06-24T08:32:19;2.33;;;2.13;;
10191;SDS011;17580;50.850;4.504;2023-06-24T08:34:46;2.33;;;2.23;;
10191;SDS011;17580;50.850;4.504;2023-06-24T08:37:14;2.13;;;2.00;;
10191;SDS011;17580;50.850;4.504;2023-06-24T08:39:41;2.43;;;2.30;;
10191;SDS011;17580;50.850;4.504;2023-06-24T08:42:08;2.10;;;2.00;;
10191;SDS011;17580;50.850;4.504;2023-06-24T08:44:37;5.23;;;2.87;;
10191;SDS011;17580;50.850;4.504;2023-06-24T08:47:04;2.07;;;1.90;;
10191;SDS011;17580;50.850;4.504;2023-06-24T08:49:31;1.90;;;1.80;;
10191;SDS011;17580;50.850;4.504;2023-06-24T08:52:00;1.90;;;1.80;;
10191;SDS011;17580;50.850;4.504;2023-06-24T08:54:27;3.50;;;1.70;;
10191;SDS011;17580;50.850;4.504;2023-06-24T08:56:55;1.53;;;1.53;;
10191;SDS011;17580;50.850;4.504;2023-06-24T08:59:22;4.07;;;2.10;;
10191;SDS011;17580;50.850;4.504;2023-06-24T09:01:51;1.80;;;1.70;;
10191;SDS011;17580;50.850;4.504;2023-06-24T09:04:18;1.87;;;1.77;;
10191;SDS011;17580;50.850;4.504;2023-06-24T09:06:45;1.87;;;1.77;;
10191;SDS011;17580;50.850;4.504;2023-06-24T09:09:19;1.90;;;1.80;;
10191;SDS011;17580;50.850;4.504;2023-06-24T09:11:52;2.10;;;2.00;;
10191;SDS011;17580;50.850;4.504;2023-06-24T09:14:20;2.00;;;1.90;;
10191;SDS011;17580;50.850;4.504;2023-06-24T09:16:52;1.80;;;1.70;;
10191;SDS011;17580;50.850;4.504;2023-06-24T09:19:20;1.80;;;1.70;;
10191;SDS011;17580;50.850;4.504;2023-06-24T09:21:47;1.80;;;1.70;;
10191;SDS011;17580;50.850;4.504;2023-06-24T09:24:14;2.10;;;1.90;;
10191;SDS011;17580;50.850;4.504;2023-06-24T09:26:42;2.00;;;1.90;;
10191;SDS011;17580;50.850;4.504;2023-06-24T09:29:10;1.80;;;1.70;;
10191;SDS011;17580;50.850;4.504;2023-06-24T09:31:45;1.80;;;1.70;;
10191;SDS011;17580;50.850;4.504;2023-06-24T09:34:14;3.07;;;2.00;;
10191;SDS011;17580;50.850;4.504;2023-06-24T09:36:42;2.00;;;1.90;;
10191;SDS011;17580;50.850;4.504;2023-06-24T09:39:10;1.77;;;1.77;;
10191;SDS011;17580;50.850;4.504;2023-06-24T09:41:39;1.97;;;1.87;;
10191;SDS011;17580;50.850;4.504;2023-06-24T09:44:07;2.13;;;2.03;;
10191;SDS011;17580;50.850;4.504;2023-06-24T09:46:35;1.97;;;1.87;;
10191;SDS011;17580;50.850;4.504;2023-06-24T09:49:03;2.30;;;2.20;;
10191;SDS011;17580;50.850;4.504;2023-06-24T09:51:32;1.98;;;1.80;;
10191;SDS011;17580;50.850;4.504;2023-06-24T09:54:02;2.22;;;1.92;;
10191;SDS011;17580;50.850;4.504;2023-06-24T09:56:30;1.98;;;1.90;;
10191;SDS011;17580;50.850;4.504;2023-06-24T09:58:57;1.90;;;1.80;;
10191;SDS011;17580;50.850;4.504;2023-06-24T10:01:25;1.85;;;1.75;;
10191;SDS011;17580;50.850;4.504;2023-06-24T10:03:52;2.00;;;1.90;;
10191;SDS011;17580;50.850;4.504;2023-06-24T10:06:20;1.70;;;1.70;;
10191;SDS011;17580;50.850;4.504;2023-06-24T10:08:49;1.77;;;1.70;;
10191;SDS011;17580;50.850;4.504;2023-06-24T10:11:16;1.80;;;1.70;;
10191;SDS011;17580;50.850;4.504;2023-06-24T10:13:43;1.85;;;1.85;;
10191;SDS011;17580;50.850;4.504;2023-06-24T10:16:11;1.70;;;1.70;;
10191;SDS011;17580;50.850;4.504;2023-06-24T10:18:39;1.55;;;1.55;;
10191;SDS011;17580;50.850;4.504;2023-06-24T10:21:07;2.25;;;2.05;;
10191;SDS011;17580;50.850;4.504;2023-06-24T10:23:39;2.10;;;1.95;;
10191;SDS011;17580;50.850;4.504;2023-06-24T10:26:20;2.10;;;2.00;;
10191;SDS011;17580;50.850;4.504;2023-06-24T10:29:08;1.70;;;1.60;;
10191;SDS011;17580;50.850;4.504;2023-06-24T10:31:50;1.83;;;1.77;;
10191;SDS011;17580;50.850;4.504;2023-06-24T10:34:20;1.90;;;1.83;;
10191;SDS011;17580;50.850;4.504;2023-06-24T10:36:52;1.77;;;1.67;;
10191;SDS011;17580;50.850;4.504;2023-06-24T10:39:34;2.22;;;1.80;;
10191;SDS011;17580;50.850;4.504;2023-06-24T10:44:48;1.70;;;1.70;;
10191;SDS011;17580;50.850;4.504;2023-06-24T10:47:15;2.10;;;2.00;;
10191;SDS011;17580;50.850;4.504;2023-06-24T10:49:43;2.05;;;1.95;;
10191;SDS011;17580;50.850;4.504;2023-06-24T10:52:10;1.70;;;1.70;;
10191;SDS011;17580;50.850;4.504;2023-06-24T10:54:38;2.13;;;2.03;;
10191;SDS011;17580;50.850;4.504;2023-06-24T10:57:05;2.10;;;2.00;;
10191;SDS011;17580;50.850;4.504;2023-06-24T10:59:33;1.77;;;1.77;;
10191;SDS011;17580;50.850;4.504;2023-06-24T11:02:02;2.10;;;2.00;;
10191;SDS011;17580;50.850;4.504;2023-06-24T11:04:29;2.30;;;2.20;;
10191;SDS011;17580;50.850;4.504;2023-06-24T11:06:57;1.90;;;1.80;;
10191;SDS011;17580;50.850;4.504;2023-06-24T11:09:25;2.00;;;1.90;;
10191;SDS011;17580;50.850;4.504;2023-06-24T11:11:52;2.08;;;1.98;;
10191;SDS011;17580;50.850;4.504;2023-06-24T11:14:19;2.00;;;1.90;;
10191;SDS011;17580;50.850;4.504;2023-06-24T11:16:46;1.90;;;1.80;;
10191;SDS011;17580;50.850;4.504;2023-06-24T11:19:15;2.17;;;2.08;;
10191;SDS011;17580;50.850;4.504;2023-06-24T11:21:42;1.70;;;1.70;;
10191;SDS011;17580;50.850;4.504;2023-06-24T11:24:10;2.15;;;2.05;;
10191;SDS011;17580;50.850;4.504;2023-06-24T11:26:37;1.80;;;1.70;;
10191;SDS011;17580;50.850;4.504;2023-06-24T11:29:09;2.90;;;2.45;;
10191;SDS011;17580;50.850;4.504;2023-06-24T11:31:36;2.10;;;2.00;;
10191;SDS011;17580;50.850;4.504;2023-06-24T11:34:03;2.00;;;1.90;;
10191;SDS011;17580;50.850;4.504;2023-06-24T11:36:32;2.25;;;2.15;;
10191;SDS011;17580;50.850;4.504;2023-06-24T11:38:59;2.13;;;2.03;;
10191;SDS011;17580;50.850;4.504;2023-06-24T11:41:27;2.22;;;2.13;;
10191;SDS011;17580;50.850;4.504;2023-06-24T11:43:54;1.88;;;1.88;;
10191;SDS011;17580;50.850;4.504;2023-06-24T11:46:24;2.30;;;2.20;;
10191;SDS011;17580;50.850;4.504;2023-06-24T11:48:51;2.15;;;2.05;;
10191;SDS011;17580;50.850;4.504;2023-06-24T11:51:19;2.40;;;2.30;;
10191;SDS011;17580;50.850;4.504;2023-06-24T11:53:47;2.45;;;2.35;;
10191;SDS011;17580;50.850;4.504;2023-06-24T11:56:14;2.25;;;2.08;;
10191;SDS011;17580;50.850;4.504;2023-06-24T11:58:42;2.10;;;2.00;;
10191;SDS011;17580;50.850;4.504;2023-06-24T12:01:10;2.13;;;2.03;;
10191;SDS011;17580;50.850;4.504;2023-06-24T12:03:37;2.55;;;2.45;;
10191;SDS011;17580;50.850;4.504;2023-06-24T12:06:04;2.60;;;2.03;;
10191;SDS011;17580;50.850;4.504;2023-06-24T12:08:32;1.80;;;1.80;;
10191;SDS011;17580;50.850;4.504;2023-06-24T12:11:00;2.13;;;2.03;;
10191;SDS011;17580;50.850;4.504;2023-06-24T12:13:28;2.20;;;2.10;;
10191;SDS011;17580;50.850;4.504;2023-06-24T12:15:56;4.60;;;2.10;;
10191;SDS011;17580;50.850;4.504;2023-06-24T12:18:23;2.90;;;2.65;;
10191;SDS011;17580;50.850;4.504;2023-06-24T12:20:50;2.60;;;2.50;;
10191;SDS011;17580;50.850;4.504;2023-06-24T12:23:17;3.08;;;2.85;;
10191;SDS011;17580;50.850;4.504;2023-06-24T12:25:44;2.67;;;2.50;;
10191;SDS011;17580;50.850;4.504;2023-06-24T12:28:13;1.98;;;1.88;;
10191;SDS011;17580;50.850;4.504;2023-06-24T12:30:40;2.10;;;2.00;;
10191;SDS011;17580;50.850;4.504;2023-06-24T12:33:08;2.30;;;2.20;;
10191;SDS011;17580;50.850;4.504;2023-06-24T12:35:35;2.30;;;2.20;;
10191;SDS011;17580;50.850;4.504;2023-06-24T12:38:02;1.70;;;1.70;;
10191;SDS011;17580;50.850;4.504;2023-06-24T12:40:29;2.17;;;2.08;;
10191;SDS011;17580;50.850;4.504;2023-06-24T12:42:57;2.30;;;2.20;;
10191;SDS011;17580;50.850;4.504;2023-06-24T12:45:26;2.20;;;2.10;;
10191;SDS011;17580;50.850;4.504;2023-06-24T12:47:53;2.42;;;2.33;;
10191;SDS011;17580;50.850;4.504;2023-06-24T12:50:20;2.47;;;2.35;;
10191;SDS011;17580;50.850;4.504;2023-06-24T12:52:48;2.17;;;2.08;;
10191;SDS011;17580;50.850;4.504;2023-06-24T12:55:15;2.33;;;2.22;;
10191;SDS011;17580;50.850;4.504;2023-06-24T12:57:42;2.05;;;1.95;;
10191;SDS011;17580;50.850;4.504;2023-06-24T13:00:10;2.38;;;2.22;;
10191;SDS011;17580;50.850;4.504;2023-06-24T13:02:39;1.80;;;1.80;;
10191;SDS011;17580;50.850;4.504;2023-06-24T13:05:06;2.25;;;2.15;;
10191;SDS011;17580;50.850;4.504;2023-06-24T13:07:33;2.28;;;2.17;;
10191;SDS011;17580;50.850;4.504;2023-06-24T13:10:01;2.03;;;1.92;;
10191;SDS011;17580;50.850;4.504;2023-06-24T13:12:31;2.00;;;1.90;;
10191;SDS011;17580;50.850;4.504;2023-06-24T13:14:58;2.47;;;2.33;;
10191;SDS011;17580;50.850;4.504;2023-06-24T13:17:25;2.58;;;2.40;;
10191;SDS011;17580;50.850;4.504;2023-06-24T13:19:54;1.92;;;1.83;;
10191;SDS011;17580;50.850;4.504;2023-06-24T13:22:21;2.23;;;2.00;;
10191;SDS011;17580;50.850;4.504;2023-06-24T13:24:49;2.27;;;2.17;;
10191;SDS011;17580;50.850;4.504;2023-06-24T13:27:16;2.03;;;2.00;;
10191;SDS011;17580;50.850;4.504;2023-06-24T13:29:43;2.07;;;2.00;;
10191;SDS011;17580;50.850;4.504;2023-06-24T13:32:10;2.13;;;2.03;;
10191;SDS011;17580;50.850;4.504;2023-06-24T13:34:38;1.87;;;1.80;;
10191;SDS011;17580;50.850;4.504;2023-06-24T13:37:06;2.93;;;2.13;;
10191;SDS011;17580;50.850;4.504;2023-06-24T13:39:34;2.57;;;2.23;;
10191;SDS011;17580;50.850;4.504;2023-06-24T13:42:01;3.67;;;2.43;;
10191;SDS011;17580;50.850;4.504;2023-06-24T13:44:28;1.90;;;1.90;;
10191;SDS011;17580;50.850;4.504;2023-06-24T13:46:55;2.60;;;2.50;;
10191;SDS011;17580;50.850;4.504;2023-06-24T13:49:22;2.30;;;2.20;;
10191;SDS011;17580;50.850;4.504;2023-06-24T13:51:50;3.00;;;2.47;;
10191;SDS011;17580;50.850;4.504;2023-06-24T13:54:19;2.40;;;2.20;;
10191;SDS011;17580;50.850;4.504;2023-06-24T13:56:46;2.23;;;2.13;;
10191;SDS011;17580;50.850;4.504;2023-06-24T13:59:13;2.30;;;2.20;;
10191;SDS011;17580;50.850;4.504;2023-06-24T14:01:41;7.53;;;2.40;;
10191;SDS011;17580;50.850;4.504;2023-06-24T14:04:08;2.70;;;2.50;;
10191;SDS011;17580;50.850;4.504;2023-06-24T14:06:35;2.27;;;2.10;;
10191;SDS011;17580;50.850;4.504;2023-06-24T14:09:02;2.33;;;2.23;;
10191;SDS011;17580;50.850;4.504;2023-06-24T14:11:31;2.23;;;2.13;;
10191;SDS011;17580;50.850;4.504;2023-06-24T14:13:58;2.50;;;2.40;;
10191;SDS011;17580;50.850;4.504;2023-06-24T14:16:24;2.70;;;2.50;;
10191;SDS011;17580;50.850;4.504;2023-06-24T14:18:51;2.37;;;2.27;;
10191;SDS011;17580;50.850;4.504;2023-06-24T14:21:18;2.40;;;2.30;;
10191;SDS011;17580;50.850;4.504;2023-06-24T14:23:46;2.17;;;2.07;;
10191;SDS011;17580;50.850;4.504;2023-06-24T14:26:13;2.43;;;2.33;;
10191;SDS011;17580;50.850;4.504;2023-06-24T14:28:41;2.00;;;1.90;;
10191;SDS011;17580;50.850;4.504;2023-06-24T14:31:09;2.53;;;2.33;;
10191;SDS011;17580;50.850;4.504;2023-06-24T14:33:36;2.20;;;2.10;;
10191;SDS011;17580;50.850;4.504;2023-06-24T14:36:03;2.13;;;2.03;;
10191;SDS011;17580;50.850;4.504;2023-06-24T14:38:30;2.17;;;2.07;;
10191;SDS011;17580;50.850;4.504;2023-06-24T14:40:58;2.20;;;2.10;;
10191;SDS011;17580;50.850;4.504;2023-06-24T14:43:25;2.53;;;2.43;;
10191;SDS011;17580;50.850;4.504;2023-06-24T14:45:54;2.60;;;2.50;;
10191;SDS011;17580;50.850;4.504;2023-06-24T14:48:22;2.90;;;2.57;;
10191;SDS011;17580;50.850;4.504;2023-06-24T14:50:50;2.30;;;2.20;;
10191;SDS011;17580;50.850;4.504;2023-06-24T14:53:17;2.30;;;2.20;;
10191;SDS011;17580;50.850;4.504;2023-06-24T14:55:44;2.53;;;2.33;;
10191;SDS011;17580;50.850;4.504;2023-06-24T14:58:12;2.80;;;2.60;;
10191;SDS011;17580;50.850;4.504;2023-06-24T15:00:39;2.00;;;1.90;;